sensor_id;sensor_type;location;lat;lon;timestamp;pressure;altitude;pressure_sealevel;temperature;humidity
58739;BME280;44512;53.046;18.604;2023-05-19T00:05:01;102915.33;;;13.47;45.07
58739;BME280;44512;53.046;18.604;2023-05-19T00:15:29;102910.74;;;13.39;45.36
58739;BME280;44512;53.046;18.604;2023-05-19T00:25:56;102909.86;;;13.31;45.61
58739;BME280;44512;53.046;18.604;2023-05-19T00:36:25;102902.37;;;13.24;45.75
58739;BME280;44512;53.046;18.604;2023-05-19T00:46:53;102894.66;;;13.20;45.86
58739;BME280;44512;53.046;18.604;2023-05-19T00:57:22;102898.72;;;13.16;46.11
58739;BME280;44512;53.046;18.604;2023-05-19T01:07:50;102896.50;;;13.11;46.42
58739;BME280;44512;53.046;18.604;2023-05-19T01:18:24;102891.71;;;13.05;46.66
58739;BME280;44512;53.046;18.604;2023-05-19T01:39:16;102900.71;;;12.97;47.21
58739;BME280;44512;53.046;18.604;2023-05-19T01:49:44;102897.63;;;12.92;47.52
58739;BME280;44512;53.046;18.604;2023-05-19T02:00:19;102898.26;;;12.86;47.81
58739;BME280;44512;53.046;18.604;2023-05-19T02:10:44;102894.32;;;12.81;48.03
58739;BME280;44512;53.046;18.604;2023-05-19T02:21:09;102893.82;;;12.77;48.21
58739;BME280;44512;53.046;18.604;2023-05-19T02:31:37;102892.73;;;12.70;48.46
58739;BME280;44512;53.046;18.604;2023-05-19T02:42:05;102887.11;;;12.63;48.65
58739;BME280;44512;53.046;18.604;2023-05-19T02:52:34;102886.91;;;12.57;48.98
58739;BME280;44512;53.046;18.604;2023-05-19T03:03:02;102885.52;;;12.53;49.25
58739;BME280;44512;53.046;18.604;2023-05-19T03:13:30;102887.52;;;12.50;49.48
58739;BME280;44512;53.046;18.604;2023-05-19T03:24:00;102880.73;;;12.46;49.92
58739;BME280;44512;53.046;18.604;2023-05-19T03:34:27;102891.06;;;12.43;50.15
58739;BME280;44512;53.046;18.604;2023-05-19T03:44:56;102891.23;;;12.41;50.50
58739;BME280;44512;53.046;18.604;2023-05-19T03:55:25;102902.10;;;12.41;50.85
58739;BME280;44512;53.046;18.604;2023-05-19T04:05:52;102904.82;;;12.41;51.26
58739;BME280;44512;53.046;18.604;2023-05-19T04:16:21;102910.24;;;12.41;51.60
58739;BME280;44512;53.046;18.604;2023-05-19T04:26:49;102914.49;;;12.44;51.87
58739;BME280;44512;53.046;18.604;2023-05-19T04:37:17;102915.21;;;12.46;52.20
58739;BME280;44512;53.046;18.604;2023-05-19T04:47:46;102913.00;;;12.49;52.50
58739;BME280;44512;53.046;18.604;2023-05-19T04:58:14;102921.51;;;12.55;52.64
58739;BME280;44512;53.046;18.604;2023-05-19T05:08:42;102921.22;;;12.58;52.60
58739;BME280;44512;53.046;18.604;2023-05-19T05:19:11;102923.45;;;12.62;52.49
58739;BME280;44512;53.046;18.604;2023-05-19T05:29:39;102925.52;;;12.68;52.51
58739;BME280;44512;53.046;18.604;2023-05-19T05:40:08;102925.72;;;12.75;52.67
58739;BME280;44512;53.046;18.604;2023-05-19T05:50:37;102926.62;;;12.84;52.65
58739;BME280;44512;53.046;18.604;2023-05-19T06:01:05;102939.39;;;12.91;52.69
58739;BME280;44512;53.046;18.604;2023-05-19T06:11:33;102933.84;;;13.01;52.53
58739;BME280;44512;53.046;18.604;2023-05-19T06:22:01;102937.45;;;13.10;52.51
58739;BME280;44512;53.046;18.604;2023-05-19T06:32:29;102945.30;;;13.21;52.46
58739;BME280;44512;53.046;18.604;2023-05-19T06:42:58;102938.93;;;13.30;52.23
58739;BME280;44512;53.046;18.604;2023-05-19T06:53:26;102941.65;;;13.38;51.91
58739;BME280;44512;53.046;18.604;2023-05-19T07:03:54;102948.16;;;13.45;51.87
58739;BME280;44512;53.046;18.604;2023-05-19T07:14:23;102946.29;;;13.54;51.78
58739;BME280;44512;53.046;18.604;2023-05-19T07:24:52;102950.91;;;13.62;51.73
58739;BME280;44512;53.046;18.604;2023-05-19T07:35:20;102965.55;;;13.69;51.81
58739;BME280;44512;53.046;18.604;2023-05-19T07:45:48;102957.74;;;13.74;51.78
58739;BME280;44512;53.046;18.604;2023-05-19T07:56:16;102957.07;;;13.80;51.87
58739;BME280;44512;53.046;18.604;2023-05-19T08:06:45;102945.86;;;13.83;51.78
58739;BME280;44512;53.046;18.604;2023-05-19T08:17:13;102947.23;;;13.87;51.80
58739;BME280;44512;53.046;18.604;2023-05-19T08:27:42;102947.39;;;13.94;51.76
58739;BME280;44512;53.046;18.604;2023-05-19T08:38:10;102958.46;;;14.00;51.70
58739;BME280;44512;53.046;18.604;2023-05-19T08:48:41;102943.16;;;14.07;52.03
58739;BME280;44512;53.046;18.604;2023-05-19T08:59:07;102948.27;;;14.19;52.28
58739;BME280;44512;53.046;18.604;2023-05-19T09:09:35;102941.28;;;14.32;52.55
58739;BME280;44512;53.046;18.604;2023-05-19T09:20:05;102946.19;;;14.45;52.73
58739;BME280;44512;53.046;18.604;2023-05-19T09:30:32;102941.11;;;14.58;52.86
58739;BME280;44512;53.046;18.604;2023-05-19T09:41:00;102941.77;;;14.69;53.06
58739;BME280;44512;53.046;18.604;2023-05-19T09:51:28;102936.13;;;14.78;53.08
58739;BME280;44512;53.046;18.604;2023-05-19T10:01:58;102942.38;;;14.87;53.29
58739;BME280;44512;53.046;18.604;2023-05-19T10:12:25;102931.81;;;14.92;53.71
58739;BME280;44512;53.046;18.604;2023-05-19T10:22:54;102926.02;;;14.95;53.81
58739;BME280;44512;53.046;18.604;2023-05-19T10:54:44;102947.30;;;15.00;55.80
58739;BME280;44512;53.046;18.604;2023-05-19T11:04:50;102930.26;;;14.98;56.10
58739;BME280;44512;53.046;18.604;2023-05-19T11:15:16;102921.05;;;14.99;56.56
58739;BME280;44512;53.046;18.604;2023-05-19T11:25:50;102906.41;;;15.00;56.63
58739;BME280;44512;53.046;18.604;2023-05-19T11:36:12;102919.01;;;15.01;56.52
58739;BME280;44512;53.046;18.604;2023-05-19T11:46:40;102911.67;;;15.01;56.25
58739;BME280;44512;53.046;18.604;2023-05-19T11:57:09;102923.61;;;15.00;56.13
58739;BME280;44512;53.046;18.604;2023-05-19T12:07:37;102923.61;;;15.00;55.66
58739;BME280;44512;53.046;18.604;2023-05-19T12:18:05;102927.00;;;15.02;55.36
58739;BME280;44512;53.046;18.604;2023-05-19T12:28:33;102912.34;;;15.03;54.97
58739;BME280;44512;53.046;18.604;2023-05-19T12:39:03;102913.02;;;15.05;54.60
58739;BME280;44512;53.046;18.604;2023-05-19T12:49:30;102893.93;;;15.05;54.42
58739;BME280;44512;53.046;18.604;2023-05-19T13:10:28;102891.87;;;15.07;54.97
58739;BME280;44512;53.046;18.604;2023-05-19T13:20:55;102883.34;;;15.10;54.91
58739;BME280;44512;53.046;18.604;2023-05-19T13:31:23;102868.48;;;15.13;54.37
58739;BME280;44512;53.046;18.604;2023-05-19T13:41:52;102876.33;;;15.16;54.02
58739;BME280;44512;53.046;18.604;2023-05-19T13:52:20;102870.68;;;15.18;53.67
58739;BME280;44512;53.046;18.604;2023-05-19T14:02:48;102872.88;;;15.22;53.61
58739;BME280;44512;53.046;18.604;2023-05-19T14:13:17;102867.23;;;15.24;53.36
58739;BME280;44512;53.046;18.604;2023-05-19T14:23:45;102871.68;;;15.25;53.06
58739;BME280;44512;53.046;18.604;2023-05-19T14:34:13;102865.19;;;15.26;53.14
58739;BME280;44512;53.046;18.604;2023-05-19T14:49:30;102874.22;;;15.26;53.01
58739;BME280;44512;53.046;18.604;2023-05-19T14:59:35;102873.38;;;15.26;52.92
58739;BME280;44512;53.046;18.604;2023-05-19T15:09:37;102872.14;;;15.28;53.02
58739;BME280;44512;53.046;18.604;2023-05-19T15:19:38;102883.91;;;15.29;53.02
58739;BME280;44512;53.046;18.604;2023-05-19T15:29:42;102884.75;;;15.29;53.11
58739;BME280;44512;53.046;18.604;2023-05-19T15:39:44;102871.30;;;15.28;53.25
58739;BME280;44512;53.046;18.604;2023-05-19T15:49:45;102883.75;;;15.30;53.31
58739;BME280;44512;53.046;18.604;2023-05-19T15:59:46;102878.45;;;15.29;53.34
58739;BME280;44512;53.046;18.604;2023-05-19T16:09:48;102882.21;;;15.28;53.52
58739;BME280;44512;53.046;18.604;2023-05-19T16:19:50;102887.67;;;15.28;53.65
58739;BME280;44512;53.046;18.604;2023-05-19T16:29:51;102881.57;;;15.26;53.78
58739;BME280;44512;53.046;18.604;2023-05-19T16:39:52;102870.66;;;15.26;53.80
58739;BME280;44512;53.046;18.604;2023-05-19T16:49:54;102863.49;;;15.25;54.00
58739;BME280;44512;53.046;18.604;2023-05-19T16:59:55;102867.92;;;15.26;54.10
58739;BME280;44512;53.046;18.604;2023-05-19T17:09:56;102863.49;;;15.25;54.37
58739;BME280;44512;53.046;18.604;2023-05-19T17:19:57;102854.43;;;15.24;54.77
58739;BME280;44512;53.046;18.604;2023-05-19T17:29:59;102854.43;;;15.24;54.99
58739;BME280;44512;53.046;18.604;2023-05-19T17:40:01;102853.78;;;15.22;55.39
58739;BME280;44512;53.046;18.604;2023-05-19T17:50:03;102852.27;;;15.20;55.69
58739;BME280;44512;53.046;18.604;2023-05-19T18:00:06;102866.92;;;15.19;55.92
58739;BME280;44512;53.046;18.604;2023-05-19T18:10:08;102867.30;;;15.16;56.06
58739;BME280;44512;53.046;18.604;2023-05-19T18:20:11;102868.32;;;15.15;56.12
58739;BME280;44512;53.046;18.604;2023-05-19T18:30:13;102860.48;;;15.11;56.10
58739;BME280;44512;53.046;18.604;2023-05-19T18:40:34;102877.20;;;15.08;55.78
58739;BME280;44512;53.046;18.604;2023-05-19T18:51:03;102885.06;;;15.03;55.38
58739;BME280;44512;53.046;18.604;2023-05-19T19:01:31;102885.44;;;15.00;55.12
58739;BME280;44512;53.046;18.604;2023-05-19T19:11:59;102880.51;;;14.96;54.99
58739;BME280;44512;53.046;18.604;2023-05-19T19:22:28;102873.38;;;14.87;54.88
58739;BME280;44512;53.046;18.604;2023-05-19T19:32:56;102874.93;;;14.89;55.00
58739;BME280;44512;53.046;18.604;2023-05-19T19:43:25;102886.17;;;14.86;55.04
58739;BME280;44512;53.046;18.604;2023-05-19T19:53:53;102886.51;;;14.83;55.16
58739;BME280;44512;53.046;18.604;2023-05-19T20:04:21;102896.75;;;14.81;55.42
58739;BME280;44512;53.046;18.604;2023-05-19T20:14:53;102897.09;;;14.78;55.74
58739;BME280;44512;53.046;18.604;2023-05-19T20:25:18;102890.98;;;14.76;56.02
58739;BME280;44512;53.046;18.604;2023-05-19T20:35:46;102901.22;;;14.74;56.23
58739;BME280;44512;53.046;18.604;2023-05-19T20:46:15;102893.38;;;14.71;56.52
58739;BME280;44512;53.046;18.604;2023-05-19T20:56:43;102896.29;;;14.69;56.73
58739;BME280;44512;53.046;18.604;2023-05-19T21:07:11;102896.62;;;14.66;56.92
58739;BME280;44512;53.046;18.604;2023-05-19T21:17:40;102895.12;;;14.64;57.10
58739;BME280;44512;53.046;18.604;2023-05-19T21:28:08;102894.60;;;14.60;57.28
58739;BME280;44512;53.046;18.604;2023-05-19T21:38:36;102902.95;;;14.58;57.48
58739;BME280;44512;53.046;18.604;2023-05-19T21:49:05;102904.99;;;14.56;57.70
58739;BME280;44512;53.046;18.604;2023-05-19T21:59:33;102910.80;;;14.53;57.89
58739;BME280;44512;53.046;18.604;2023-05-19T22:10:02;102911.98;;;14.51;58.03
58739;BME280;44512;53.046;18.604;2023-05-19T22:20:30;102903.99;;;14.49;58.17
58739;BME280;44512;53.046;18.604;2023-05-19T22:30:58;102900.61;;;14.47;58.26
58739;BME280;44512;53.046;18.604;2023-05-19T22:41:27;102905.32;;;14.45;58.38
58739;BME280;44512;53.046;18.604;2023-05-19T22:51:55;102901.10;;;14.43;58.51
58739;BME280;44512;53.046;18.604;2023-05-19T23:02:23;102899.55;;;14.40;58.69
58739;BME280;44512;53.046;18.604;2023-05-19T23:12:52;102899.72;;;14.39;58.86
58739;BME280;44512;53.046;18.604;2023-05-19T23:23:20;102894.46;;;14.37;58.95
58739;BME280;44512;53.046;18.604;2023-05-19T23:33:48;102895.46;;;14.36;59.04
58739;BME280;44512;53.046;18.604;2023-05-19T23:44:17;102889.34;;;14.34;59.12
58739;BME280;44512;53.046;18.604;2023-05-19T23:54:45;102887.65;;;14.33;59.16
